Time;durP1;ratioP1;P1;durP2;ratioP2;P2;SDS_P1;SDS_P2;PMS_P1;PMS_P2;Temp;Humidity;BMP_temperature;BMP_pressure;BME280_temperature;BME280_humidity;BME280_pressure;Samples;Min_cycle;Max_cycle;Signal;HPM_P1;HPM_P2
2024/01/27 00:00:51;;;;;;;14.30;3.03;;;5.60;99.90;;;;;;5214840;28;20455;-52
2024/01/27 00:03:24;;;;;;;11.67;3.37;;;5.50;99.90;;;;;;5223136;28;20514;-51
2024/01/27 00:05:55;;;;;;;17.57;2.63;;;5.50;99.90;;;;;;5220858;28;20507;-51
2024/01/27 00:08:26;;;;;;;17.37;3.40;;;5.60;99.90;;;;;;5215117;28;20949;-50
2024/01/27 00:10:57;;;;;;;26.63;4.50;;;5.60;99.90;;;;;;5221261;28;20214;-50
2024/01/27 00:13:28;;;;;;;23.80;3.77;;;5.60;99.90;;;;;;5215642;28;20524;-49
2024/01/27 00:15:59;;;;;;;10.13;2.87;;;5.60;99.90;;;;;;5221804;28;20543;-49
2024/01/27 00:18:30;;;;;;;16.67;2.60;;;5.50;99.90;;;;;;5215291;28;20194;-52
2024/01/27 00:21:01;;;;;;;21.20;3.40;;;5.40;99.90;;;;;;5213120;28;20437;-51
2024/01/27 00:23:37;;;;;;;15.27;3.87;;;5.20;99.90;;;;;;5220821;28;20662;-50
2024/01/27 00:26:08;;;;;;;23.20;3.70;;;5.20;99.90;;;;;;5215030;28;20781;-51
2024/01/27 00:28:40;;;;;;;11.47;2.73;;;5.00;99.90;;;;;;5216410;28;20946;-50
2024/01/27 00:31:10;;;;;;;11.10;3.37;;;5.00;99.90;;;;;;5220120;28;20534;-49
2024/01/27 00:33:41;;;;;;;16.37;3.80;;;5.00;99.90;;;;;;5218658;28;20433;-50
2024/01/27 00:36:12;;;;;;;20.57;3.30;;;4.90;99.90;;;;;;5235784;28;20228;-49
2024/01/27 00:38:43;;;;;;;18.27;3.70;;;4.90;99.90;;;;;;5213570;28;20190;-50
2024/01/27 00:41:17;;;;;;;15.07;2.87;;;5.00;99.90;;;;;;5215165;28;20200;-50
2024/01/27 00:43:48;;;;;;;21.97;3.80;;;5.00;99.90;;;;;;5217416;28;20209;-51
2024/01/27 00:46:19;;;;;;;9.47;2.47;;;5.10;99.90;;;;;;5216645;28;20453;-49
2024/01/27 00:48:50;;;;;;;14.77;2.80;;;5.00;99.90;;;;;;5219303;28;20197;-49
2024/01/27 00:51:21;;;;;;;26.77;3.37;;;5.00;99.90;;;;;;5222741;28;20480;-50
2024/01/27 00:53:52;;;;;;;16.47;3.53;;;5.00;99.90;;;;;;5220889;28;20426;-51
2024/01/27 00:56:23;;;;;;;23.37;4.57;;;5.10;99.90;;;;;;5217021;28;20450;-50
2024/01/27 00:58:54;;;;;;;12.53;3.73;;;5.20;99.90;;;;;;5217774;28;20269;-50
2024/01/27 01:01:24;;;;;;;13.07;3.07;;;5.20;99.90;;;;;;5210810;28;20187;-51
2024/01/27 01:03:55;;;;;;;10.60;2.83;;;5.20;99.90;;;;;;5219752;28;20468;-50
2024/01/27 01:06:26;;;;;;;15.13;2.93;;;5.20;99.90;;;;;;5213501;28;20198;-51
2024/01/27 01:08:57;;;;;;;16.60;2.80;;;5.30;99.90;;;;;;5213898;28;20518;-51
2024/01/27 01:11:28;;;;;;;16.03;3.07;;;5.20;99.90;;;;;;5210271;28;20245;-52
2024/01/27 01:13:59;;;;;;;12.13;3.03;;;5.20;99.90;;;;;;5221782;28;20260;-51
2024/01/27 01:16:30;;;;;;;12.67;3.10;;;5.30;99.90;;;;;;5214103;28;20181;-51
2024/01/27 01:19:01;;;;;;;12.17;2.57;;;5.40;99.90;;;;;;5216307;28;20437;-51
2024/01/27 01:21:31;;;;;;;14.20;3.30;;;5.40;99.90;;;;;;5196828;28;20430;-50
2024/01/27 01:24:02;;;;;;;19.83;3.33;;;5.40;99.90;;;;;;5216568;28;20456;-50
2024/01/27 01:26:33;;;;;;;13.77;3.03;;;5.40;99.90;;;;;;5219102;28;20308;-51
2024/01/27 01:29:04;;;;;;;23.03;4.60;;;5.40;99.90;;;;;;5217131;28;20235;-50
2024/01/27 01:31:34;;;;;;;31.47;4.27;;;5.40;99.90;;;;;;5217838;28;20186;-50
2024/01/27 01:34:05;;;;;;;8.23;2.57;;;5.30;99.90;;;;;;5223465;28;20237;-50
2024/01/27 01:36:37;;;;;;;15.30;3.40;;;5.20;99.90;;;;;;5225128;28;20213;-50
2024/01/27 01:39:11;;;;;;;13.50;4.30;;;5.30;99.90;;;;;;5215123;28;20204;-54
2024/01/27 01:41:42;;;;;;;9.43;3.63;;;5.20;99.90;;;;;;5218727;28;20798;-49
2024/01/27 01:44:12;;;;;;;12.97;3.43;;;5.20;99.90;;;;;;5222687;28;20526;-51
2024/01/27 01:46:43;;;;;;;10.77;2.70;;;5.20;99.90;;;;;;5225892;28;20491;-50
2024/01/27 01:49:14;;;;;;;16.40;4.20;;;5.20;99.90;;;;;;5219248;28;20620;-51
2024/01/27 01:51:45;;;;;;;10.03;3.30;;;5.30;99.90;;;;;;5218737;28;20190;-50
2024/01/27 01:54:16;;;;;;;17.70;2.47;;;5.20;99.90;;;;;;5222588;28;20216;-50
2024/01/27 01:56:47;;;;;;;21.97;3.73;;;5.20;99.90;;;;;;5220521;28;20441;-50
2024/01/27 01:59:18;;;;;;;25.53;3.00;;;5.20;99.90;;;;;;5204155;28;20656;-50
2024/01/27 02:01:49;;;;;;;25.23;4.43;;;5.10;99.90;;;;;;5213396;28;20432;-49
2024/01/27 02:04:20;;;;;;;18.90;3.50;;;5.00;99.90;;;;;;5224615;28;21023;-52
2024/01/27 02:06:50;;;;;;;18.60;3.90;;;5.10;99.90;;;;;;5220256;28;20468;-51
2024/01/27 02:09:21;;;;;;;14.57;3.17;;;5.10;99.90;;;;;;5225917;28;20522;-51
2024/01/27 02:11:52;;;;;;;12.53;3.43;;;5.00;99.90;;;;;;5221734;28;20304;-51
2024/01/27 02:14:25;;;;;;;15.50;3.07;;;5.10;99.90;;;;;;5217063;28;20208;-51
2024/01/27 02:16:56;;;;;;;9.67;3.20;;;5.10;99.90;;;;;;5218077;28;20435;-49
2024/01/27 02:19:27;;;;;;;19.40;3.27;;;5.20;99.90;;;;;;5216811;28;20445;-50
2024/01/27 02:21:58;;;;;;;24.23;3.80;;;5.20;99.90;;;;;;5215811;28;20456;-49
2024/01/27 02:24:29;;;;;;;20.00;3.60;;;5.20;99.90;;;;;;5211918;28;20210;-51
2024/01/27 02:27:00;;;;;;;9.53;2.43;;;5.20;99.90;;;;;;5214695;28;20186;-50
2024/01/27 02:29:31;;;;;;;17.20;4.23;;;5.30;99.90;;;;;;5221588;28;20893;-51
2024/01/27 02:32:02;;;;;;;19.20;3.30;;;5.30;99.90;;;;;;5221888;28;20187;-51
2024/01/27 02:34:33;;;;;;;13.20;3.00;;;5.40;99.90;;;;;;5220071;28;20460;-50
2024/01/27 02:37:05;;;;;;;22.30;3.13;;;5.30;99.90;;;;;;5219849;28;20460;-50
2024/01/27 02:39:40;;;;;;;17.80;4.10;;;5.40;99.90;;;;;;5219026;28;20190;-49
2024/01/27 02:42:11;;;;;;;17.70;3.47;;;5.40;99.90;;;;;;5218785;28;20440;-50
2024/01/27 02:44:41;;;;;;;24.03;4.60;;;5.40;99.90;;;;;;5224248;28;20463;-50
2024/01/27 02:47:13;;;;;;;18.23;3.53;;;5.40;99.90;;;;;;5217219;28;20182;-50
2024/01/27 02:49:43;;;;;;;16.80;3.60;;;5.40;99.90;;;;;;5220128;28;20467;-49
2024/01/27 02:52:14;;;;;;;26.83;3.37;;;5.30;99.90;;;;;;5218275;28;20437;-50
2024/01/27 02:54:45;;;;;;;9.80;3.27;;;5.40;99.90;;;;;;5220887;28;20214;-50
2024/01/27 02:57:17;;;;;;;17.10;4.37;;;5.30;99.90;;;;;;5223413;28;21025;-49
2024/01/27 02:59:48;;;;;;;17.93;3.37;;;5.20;99.90;;;;;;5221800;28;20444;-51
2024/01/27 03:02:18;;;;;;;13.87;3.60;;;5.20;99.90;;;;;;5217678;28;20449;-50
2024/01/27 03:04:49;;;;;;;20.47;3.37;;;5.30;99.90;;;;;;5217195;28;23681;-50
2024/01/27 03:07:20;;;;;;;21.47;3.03;;;5.40;99.90;;;;;;5211580;28;20249;-50
2024/01/27 03:09:51;;;;;;;18.47;3.40;;;5.40;99.90;;;;;;5217610;28;20704;-50
2024/01/27 03:12:22;;;;;;;23.50;3.40;;;5.40;99.90;;;;;;5217612;28;20433;-50
2024/01/27 03:14:54;;;;;;;11.90;4.40;;;5.40;99.90;;;;;;5204565;28;20557;-50
2024/01/27 03:17:25;;;;;;;10.20;2.40;;;5.40;99.90;;;;;;5215403;28;20449;-49
2024/01/27 03:19:56;;;;;;;13.93;3.20;;;5.50;99.90;;;;;;5214181;28;20448;-50
2024/01/27 03:22:27;;;;;;;18.63;3.17;;;5.40;99.90;;;;;;5216158;28;20187;-50
2024/01/27 03:24:58;;;;;;;11.00;2.73;;;5.40;99.90;;;;;;5217672;28;20314;-49
2024/01/27 03:27:28;;;;;;;15.93;2.63;;;5.30;99.90;;;;;;5206171;28;20186;-52
2024/01/27 03:30:01;;;;;;;20.90;4.00;;;5.20;99.90;;;;;;5217774;28;20701;-50
2024/01/27 03:32:33;;;;;;;14.70;3.53;;;5.20;99.90;;;;;;5218591;28;20234;-50
2024/01/27 03:35:04;;;;;;;16.27;4.10;;;5.20;99.90;;;;;;5212648;28;20859;-49
2024/01/27 03:37:35;;;;;;;16.57;2.77;;;5.10;99.90;;;;;;5213690;28;20946;-50
2024/01/27 03:40:10;;;;;;;18.43;3.63;;;4.90;99.90;;;;;;5215240;28;20527;-50
2024/01/27 03:42:41;;;;;;;20.40;3.73;;;4.90;99.90;;;;;;5221443;28;20900;-52
2024/01/27 03:45:11;;;;;;;18.37;3.30;;;4.90;99.90;;;;;;5221591;28;20443;-53
2024/01/27 03:47:42;;;;;;;12.57;3.37;;;4.90;99.90;;;;;;5212798;28;20195;-50
2024/01/27 03:50:13;;;;;;;15.70;3.33;;;4.70;99.90;;;;;;5220158;28;20558;-50
2024/01/27 03:52:45;;;;;;;11.93;2.80;;;4.60;99.90;;;;;;5218836;28;20601;-50
2024/01/27 03:55:16;;;;;;;14.40;2.87;;;4.50;99.90;;;;;;5220748;28;20470;-51
2024/01/27 03:57:46;;;;;;;12.07;3.93;;;4.40;99.90;;;;;;5214999;28;20439;-50
2024/01/27 04:00:17;;;;;;;20.47;3.27;;;4.40;99.90;;;;;;5214848;28;20181;-51
2024/01/27 04:02:51;;;;;;;24.73;3.33;;;4.30;99.90;;;;;;5221013;28;20666;-49
2024/01/27 04:05:22;;;;;;;17.30;3.83;;;4.40;99.90;;;;;;5220951;28;20461;-49
2024/01/27 04:07:53;;;;;;;22.13;3.60;;;4.30;99.90;;;;;;5216215;28;20435;-51
2024/01/27 04:10:24;;;;;;;13.03;3.50;;;4.20;99.90;;;;;;5221249;28;20687;-49
2024/01/27 04:12:55;;;;;;;22.03;5.23;;;4.20;99.90;;;;;;5212382;28;20430;-49
2024/01/27 04:15:26;;;;;;;11.93;3.13;;;4.10;99.90;;;;;;5220862;28;20555;-50
2024/01/27 04:17:56;;;;;;;25.23;4.07;;;4.10;99.90;;;;;;5216752;28;20255;-49
2024/01/27 04:20:27;;;;;;;12.70;3.53;;;4.10;99.90;;;;;;5219374;28;20701;-50
2024/01/27 04:22:58;;;;;;;12.93;3.00;;;4.00;99.90;;;;;;5223669;28;20194;-50
2024/01/27 04:25:29;;;;;;;13.93;4.00;;;4.00;99.90;;;;;;5220259;28;20563;-51
2024/01/27 04:28:00;;;;;;;24.20;4.07;;;4.10;99.90;;;;;;5220717;28;20191;-50
2024/01/27 04:30:33;;;;;;;12.93;3.07;;;4.10;99.90;;;;;;5220625;28;20462;-50
2024/01/27 04:33:07;;;;;;;18.00;3.60;;;4.10;99.90;;;;;;5221116;28;20178;-50
2024/01/27 04:35:37;;;;;;;21.40;5.00;;;4.00;99.90;;;;;;5219970;28;20546;-49
2024/01/27 04:38:09;;;;;;;5.27;2.80;;;4.10;99.90;;;;;;5217922;28;20456;-50
2024/01/27 04:40:40;;;;;;;11.90;2.47;;;4.20;99.90;;;;;;5217239;28;20207;-50
2024/01/27 04:43:15;;;;;;;14.47;3.10;;;4.40;99.90;;;;;;5220420;28;21055;-50
2024/01/27 04:45:49;;;;;;;18.13;3.33;;;4.40;99.90;;;;;;5215974;28;20447;-49
2024/01/27 04:48:20;;;;;;;11.70;3.03;;;4.50;99.90;;;;;;5230970;28;20440;-50
2024/01/27 04:50:51;;;;;;;21.70;4.47;;;4.70;99.90;;;;;;5212575;28;20486;-49
2024/01/27 04:53:22;;;;;;;17.13;3.23;;;4.70;99.90;;;;;;5219729;28;20436;-51
2024/01/27 04:55:53;;;;;;;13.33;3.20;;;4.60;99.90;;;;;;5201194;28;20544;-50
2024/01/27 04:58:24;;;;;;;25.33;3.17;;;4.70;99.90;;;;;;5219779;28;20180;-50
2024/01/27 05:00:55;;;;;;;9.90;3.03;;;4.80;99.90;;;;;;5212756;28;20178;-51
2024/01/27 05:03:25;;;;;;;14.93;3.03;;;4.80;99.90;;;;;;5219789;28;20454;-50
2024/01/27 05:05:56;;;;;;;17.50;4.10;;;4.80;99.90;;;;;;5217154;28;20723;-49
2024/01/27 05:08:27;;;;;;;10.37;2.73;;;4.90;99.90;;;;;;5218914;28;20451;-53
2024/01/27 05:10:58;;;;;;;13.87;3.80;;;4.90;99.90;;;;;;5221969;28;20650;-51
2024/01/27 05:13:29;;;;;;;23.80;3.87;;;4.80;99.90;;;;;;5209014;28;20211;-50
2024/01/27 05:16:03;;;;;;;17.60;3.77;;;4.90;99.90;;;;;;5215888;28;20226;-50
2024/01/27 05:18:34;;;;;;;26.40;4.67;;;4.80;99.90;;;;;;5217390;28;20275;-50
2024/01/27 05:21:05;;;;;;;22.23;4.23;;;4.70;99.90;;;;;;5219931;28;20849;-49
2024/01/27 05:23:36;;;;;;;19.63;3.90;;;4.70;99.90;;;;;;5217108;28;20302;-52
2024/01/27 05:26:06;;;;;;;28.83;4.00;;;4.70;99.90;;;;;;5216460;28;20185;-50
2024/01/27 05:28:39;;;;;;;28.30;3.83;;;4.70;99.90;;;;;;5219293;28;20280;-50
2024/01/27 05:31:10;;;;;;;27.43;4.77;;;4.70;99.90;;;;;;5211909;28;21046;-51
2024/01/27 05:33:42;;;;;;;26.50;4.80;;;4.70;99.90;;;;;;5215906;28;20972;-50
2024/01/27 05:36:13;;;;;;;12.43;3.47;;;4.60;99.90;;;;;;5216976;28;20443;-50
2024/01/27 05:38:44;;;;;;;20.10;4.70;;;4.60;99.90;;;;;;5212603;28;20789;-51
2024/01/27 05:41:15;;;;;;;11.10;4.10;;;4.60;99.90;;;;;;5215886;28;20441;-50
2024/01/27 05:43:46;;;;;;;24.63;5.00;;;4.60;99.90;;;;;;5202249;28;20435;-50
2024/01/27 05:46:17;;;;;;;13.90;3.10;;;4.60;99.90;;;;;;5208583;28;20227;-50
2024/01/27 05:48:48;;;;;;;16.60;3.70;;;4.70;99.90;;;;;;5221419;28;20451;-50
2024/01/27 05:51:19;;;;;;;17.73;3.50;;;4.80;99.90;;;;;;5215764;28;20466;-51
2024/01/27 05:53:50;;;;;;;21.83;4.97;;;4.80;99.90;;;;;;5216819;28;20185;-50
2024/01/27 05:56:21;;;;;;;27.43;3.50;;;4.80;99.90;;;;;;5219199;28;20794;-51
2024/01/27 05:58:52;;;;;;;21.03;3.83;;;4.90;99.90;;;;;;5212977;28;20554;-50
2024/01/27 06:01:23;;;;;;;22.53;3.87;;;4.80;99.90;;;;;;5219307;28;20450;-51
2024/01/27 06:03:54;;;;;;;33.63;4.17;;;4.80;99.90;;;;;;5218195;28;20857;-50
2024/01/27 06:06:24;;;;;;;20.10;4.03;;;4.80;99.90;;;;;;5235812;28;22004;-49
2024/01/27 06:08:55;;;;;;;10.60;2.60;;;4.90;99.90;;;;;;5211563;28;20241;-51
2024/01/27 06:11:26;;;;;;;11.77;3.73;;;4.90;99.90;;;;;;5213813;28;20300;-50
2024/01/27 06:13:58;;;;;;;25.20;3.40;;;5.00;99.90;;;;;;5214087;28;20550;-50
2024/01/27 06:16:29;;;;;;;19.80;3.77;;;5.00;99.90;;;;;;5220337;28;20434;-52
2024/01/27 06:19:00;;;;;;;23.40;4.63;;;5.00;99.90;;;;;;5220951;28;20467;-52
2024/01/27 06:21:30;;;;;;;16.87;3.70;;;4.90;99.90;;;;;;5216308;28;20602;-51
2024/01/27 06:24:02;;;;;;;22.80;3.67;;;4.90;99.90;;;;;;5220853;28;20575;-50
2024/01/27 06:26:32;;;;;;;20.13;3.40;;;5.10;99.90;;;;;;5216470;28;20674;-51
2024/01/27 06:29:04;;;;;;;23.17;2.70;;;5.00;99.90;;;;;;5220823;28;20440;-50
2024/01/27 06:31:34;;;;;;;12.43;3.37;;;5.00;99.90;;;;;;5214170;28;20492;-50
2024/01/27 06:34:06;;;;;;;24.93;3.70;;;5.00;99.90;;;;;;5216816;28;20448;-50
2024/01/27 06:36:37;;;;;;;19.00;3.83;;;5.10;99.90;;;;;;5217346;28;20184;-50
2024/01/27 06:39:07;;;;;;;17.60;3.60;;;5.10;99.90;;;;;;5210101;28;20436;-51
2024/01/27 06:41:39;;;;;;;12.93;3.40;;;5.10;99.90;;;;;;5216714;28;20275;-51
2024/01/27 06:44:09;;;;;;;17.57;4.20;;;5.20;99.90;;;;;;5222266;28;20197;-51
2024/01/27 06:46:40;;;;;;;23.47;3.83;;;5.10;99.90;;;;;;5220611;28;20979;-52
2024/01/27 06:49:11;;;;;;;14.87;3.80;;;5.10;99.90;;;;;;5217403;28;20217;-51
2024/01/27 06:51:43;;;;;;;29.20;5.17;;;5.10;99.90;;;;;;5218511;28;20224;-52
2024/01/27 06:54:14;;;;;;;23.23;4.03;;;5.20;99.90;;;;;;5204556;28;20211;-52
2024/01/27 06:56:44;;;;;;;14.50;3.10;;;5.10;99.90;;;;;;5216303;28;20460;-51
2024/01/27 06:59:18;;;;;;;22.97;3.80;;;5.10;99.90;;;;;;5217428;28;20183;-50
2024/01/27 07:01:49;;;;;;;13.63;3.03;;;5.10;99.90;;;;;;5217186;28;20212;-51
2024/01/27 07:04:20;;;;;;;17.07;3.30;;;5.10;99.90;;;;;;5212961;28;20563;-52
2024/01/27 07:06:50;;;;;;;24.93;3.63;;;5.30;99.90;;;;;;5223758;28;20186;-50
2024/01/27 07:09:21;;;;;;;15.57;3.60;;;5.20;99.90;;;;;;5220206;28;20195;-51
2024/01/27 07:11:52;;;;;;;18.47;3.63;;;5.30;99.90;;;;;;5221529;28;20177;-51
2024/01/27 07:14:23;;;;;;;16.27;2.40;;;5.20;99.90;;;;;;5216229;28;20206;-51
2024/01/27 07:16:53;;;;;;;36.67;4.87;;;5.20;99.90;;;;;;5217024;28;20654;-51
2024/01/27 07:19:24;;;;;;;11.10;2.67;;;5.20;99.90;;;;;;5210369;28;20272;-51
2024/01/27 07:21:55;;;;;;;20.60;3.40;;;5.20;99.90;;;;;;5222918;28;20679;-50
2024/01/27 07:24:26;;;;;;;20.53;3.67;;;5.20;99.90;;;;;;5210745;28;20210;-51
2024/01/27 07:26:58;;;;;;;15.13;3.33;;;5.30;99.90;;;;;;5215103;28;20178;-51
2024/01/27 07:29:29;;;;;;;12.57;4.07;;;5.30;99.90;;;;;;5200875;28;20444;-50
2024/01/27 07:31:59;;;;;;;17.43;3.47;;;5.40;99.90;;;;;;5217985;28;20444;-50
2024/01/27 07:34:30;;;;;;;15.60;4.10;;;5.40;99.90;;;;;;5215705;28;20634;-51
2024/01/27 07:37:01;;;;;;;21.33;3.47;;;5.20;99.90;;;;;;5217562;28;20657;-52
2024/01/27 07:39:32;;;;;;;11.73;2.77;;;5.30;99.90;;;;;;5218576;28;20176;-50
2024/01/27 07:42:03;;;;;;;16.73;3.30;;;5.30;99.90;;;;;;5214863;28;20216;-49
2024/01/27 07:44:34;;;;;;;20.93;3.60;;;5.40;99.90;;;;;;5219243;28;20573;-50
2024/01/27 07:47:04;;;;;;;26.77;3.93;;;5.40;99.90;;;;;;5219127;28;20439;-51
2024/01/27 07:49:35;;;;;;;21.47;2.93;;;5.40;99.90;;;;;;5216456;28;20195;-52
2024/01/27 07:52:06;;;;;;;24.17;4.10;;;5.40;99.90;;;;;;5214744;28;20200;-51
2024/01/27 07:54:38;;;;;;;9.10;2.80;;;5.40;99.90;;;;;;5218449;28;20919;-51
2024/01/27 07:57:10;;;;;;;18.13;3.67;;;5.50;99.90;;;;;;5220479;28;20436;-53
2024/01/27 07:59:41;;;;;;;8.33;2.60;;;5.50;99.90;;;;;;5214441;28;20454;-52
2024/01/27 08:02:11;;;;;;;15.63;2.80;;;5.60;99.90;;;;;;5215975;28;20434;-52
2024/01/27 08:04:42;;;;;;;15.90;4.23;;;5.60;99.90;;;;;;5215596;28;20238;-51
2024/01/27 08:07:16;;;;;;;18.03;3.83;;;5.50;99.90;;;;;;5211410;28;20213;-52
2024/01/27 08:09:47;;;;;;;25.00;3.80;;;5.50;99.90;;;;;;5211153;28;20465;-51
2024/01/27 08:12:17;;;;;;;15.73;3.50;;;5.60;99.90;;;;;;5210645;28;20997;-52
2024/01/27 08:14:48;;;;;;;23.93;3.60;;;5.70;99.90;;;;;;5218329;28;20553;-51
2024/01/27 08:17:19;;;;;;;16.80;3.83;;;5.80;99.90;;;;;;5218397;28;20217;-51
2024/01/27 08:19:50;;;;;;;13.67;3.67;;;5.80;99.90;;;;;;5218144;28;20195;-52
2024/01/27 08:22:21;;;;;;;27.47;3.73;;;5.80;99.90;;;;;;5213247;28;20192;-53
2024/01/27 08:24:52;;;;;;;19.23;4.00;;;5.90;99.90;;;;;;5214708;28;20218;-53
2024/01/27 08:27:22;;;;;;;19.83;3.70;;;5.90;99.90;;;;;;5217108;28;20853;-52
2024/01/27 08:29:53;;;;;;;18.20;3.90;;;5.80;99.90;;;;;;5236206;28;20624;-52
2024/01/27 08:32:24;;;;;;;16.63;3.43;;;5.90;99.90;;;;;;5221229;28;20218;-51
2024/01/27 08:34:55;;;;;;;13.43;4.10;;;5.90;99.90;;;;;;5217414;28;20211;-52
2024/01/27 08:37:26;;;;;;;31.50;4.80;;;5.90;99.90;;;;;;5218655;28;20191;-52
2024/01/27 08:39:57;;;;;;;21.03;4.00;;;6.00;99.90;;;;;;5197934;28;20448;-51
2024/01/27 08:42:28;;;;;;;19.27;4.30;;;6.20;99.90;;;;;;5204664;28;20270;-52
2024/01/27 08:44:58;;;;;;;14.30;3.67;;;6.20;99.90;;;;;;5200424;28;20249;-51
2024/01/27 08:47:29;;;;;;;22.97;3.17;;;6.20;99.90;;;;;;5200751;28;20554;-52
2024/01/27 08:50:00;;;;;;;11.70;3.63;;;6.30;99.90;;;;;;5203452;28;20207;-52
2024/01/27 08:52:31;;;;;;;13.53;3.20;;;6.40;99.90;;;;;;5210829;28;20171;-50
2024/01/27 08:55:02;;;;;;;20.27;3.80;;;6.50;99.90;;;;;;5219990;28;20203;-51
2024/01/27 08:57:33;;;;;;;8.17;3.20;;;6.60;99.90;;;;;;5219399;28;20190;-51
2024/01/27 09:00:04;;;;;;;19.77;5.37;;;6.60;99.90;;;;;;5212380;28;20189;-50
2024/01/27 09:02:35;;;;;;;16.13;2.97;;;6.70;99.90;;;;;;5214328;28;20388;-51
2024/01/27 09:05:06;;;;;;;26.33;4.00;;;6.60;99.90;;;;;;5220010;28;20930;-51
2024/01/27 09:07:37;;;;;;;17.70;3.80;;;6.60;99.90;;;;;;5220984;28;20433;-52
2024/01/27 09:10:09;;;;;;;11.97;3.60;;;6.60;99.90;;;;;;5218950;28;20900;-52
2024/01/27 09:12:40;;;;;;;17.27;4.20;;;6.70;99.90;;;;;;5218286;28;20179;-50
2024/01/27 09:15:11;;;;;;;18.87;2.93;;;6.70;99.90;;;;;;5217914;28;20503;-51
2024/01/27 09:17:42;;;;;;;11.53;3.90;;;6.60;99.90;;;;;;5217926;28;21000;-51
2024/01/27 09:20:14;;;;;;;21.00;3.90;;;6.70;99.90;;;;;;5219258;28;20426;-52
2024/01/27 09:22:47;;;;;;;13.00;3.80;;;6.70;99.90;;;;;;5215944;28;20540;-53
2024/01/27 09:25:18;;;;;;;20.87;4.13;;;6.80;99.90;;;;;;5218949;28;20445;-53
2024/01/27 09:27:49;;;;;;;14.40;3.37;;;6.80;99.90;;;;;;5217837;28;20456;-52
2024/01/27 09:30:20;;;;;;;14.87;2.97;;;6.90;99.90;;;;;;5218044;28;20570;-51
2024/01/27 09:32:51;;;;;;;15.20;3.50;;;7.00;99.90;;;;;;5218623;28;20188;-52
2024/01/27 09:35:22;;;;;;;19.13;4.40;;;7.00;99.90;;;;;;5218329;28;20465;-51
2024/01/27 09:37:53;;;;;;;22.20;3.23;;;7.10;99.90;;;;;;5219189;28;21214;-52
2024/01/27 09:40:24;;;;;;;19.70;2.87;;;7.10;99.90;;;;;;5219420;28;20434;-51
2024/01/27 09:42:59;;;;;;;18.67;4.37;;;7.10;99.90;;;;;;5219457;28;20175;-50
2024/01/27 09:45:29;;;;;;;13.03;3.40;;;7.10;99.90;;;;;;5220396;28;20464;-51
2024/01/27 09:48:02;;;;;;;15.70;3.83;;;7.20;99.90;;;;;;5240085;28;20514;-51
2024/01/27 09:50:34;;;;;;;20.37;4.17;;;7.30;99.90;;;;;;5222090;28;20199;-52
2024/01/27 09:53:08;;;;;;;12.53;3.43;;;7.40;99.90;;;;;;5222415;28;20448;-52
2024/01/27 09:55:39;;;;;;;25.77;3.70;;;7.20;99.90;;;;;;5220092;28;20446;-52
2024/01/27 09:58:10;;;;;;;26.47;5.50;;;7.20;99.90;;;;;;5223398;28;20424;-51
2024/01/27 10:00:42;;;;;;;18.80;3.97;;;7.30;99.90;;;;;;5220443;28;20554;-51
2024/01/27 10:03:13;;;;;;;16.67;4.17;;;7.20;99.90;;;;;;5220912;28;20949;-51
2024/01/27 10:05:44;;;;;;;24.33;4.73;;;7.10;99.90;;;;;;5221239;28;20457;-52
2024/01/27 10:08:15;;;;;;;14.23;3.73;;;7.30;99.90;;;;;;5220035;28;20442;-51
2024/01/27 10:10:46;;;;;;;19.70;4.43;;;7.30;99.90;;;;;;5221457;28;20529;-51
2024/01/27 10:13:17;;;;;;;11.77;2.80;;;7.40;99.90;;;;;;5220175;28;20237;-53
2024/01/27 10:16:02;;;;;;;21.17;4.03;;;7.40;99.90;;;;;;5219135;28;20457;-51
2024/01/27 10:18:34;;;;;;;12.43;4.50;;;7.40;99.90;;;;;;5219137;28;20504;-51
2024/01/27 10:21:19;;;;;;;17.20;2.93;;;7.50;99.90;;;;;;5205056;28;20528;-51
2024/01/27 10:23:50;;;;;;;14.40;3.90;;;7.50;99.90;;;;;;5218972;28;20476;-52
2024/01/27 10:26:21;;;;;;;12.47;3.17;;;7.40;99.90;;;;;;5218902;28;20563;-52
2024/01/27 10:28:56;;;;;;;16.40;4.30;;;7.30;99.90;;;;;;5215777;28;20207;-51
2024/01/27 10:31:28;;;;;;;17.50;4.10;;;7.40;99.90;;;;;;5235186;28;20476;-52
2024/01/27 10:33:59;;;;;;;22.03;3.67;;;7.50;99.90;;;;;;5203758;28;20449;-52
2024/01/27 10:36:40;;;;;;;25.67;3.57;;;7.60;99.90;;;;;;5217459;28;20433;-51
2024/01/27 10:39:20;;;;;;;14.60;3.67;;;7.60;99.90;;;;;;5217345;28;20441;-53
2024/01/27 10:41:51;;;;;;;13.60;3.43;;;7.70;99.90;;;;;;5221024;28;20448;-53
2024/01/27 10:44:22;;;;;;;20.67;2.73;;;7.80;99.90;;;;;;5220144;28;20466;-53
2024/01/27 10:46:55;;;;;;;19.53;3.53;;;7.70;99.90;;;;;;5222121;28;20431;-52
2024/01/27 10:49:33;;;;;;;14.90;3.67;;;7.60;99.90;;;;;;5218726;28;20444;-51
2024/01/27 10:52:11;;;;;;;30.17;4.43;;;7.70;99.90;;;;;;5225957;28;20425;-52
2024/01/27 10:54:43;;;;;;;7.77;2.97;;;7.70;99.90;;;;;;5221003;28;20878;-51
2024/01/27 10:57:15;;;;;;;21.10;3.57;;;7.70;99.90;;;;;;5224197;28;20437;-52
2024/01/27 10:59:48;;;;;;;12.60;4.10;;;7.70;99.90;;;;;;5225145;28;20953;-51
2024/01/27 11:02:19;;;;;;;16.87;3.57;;;7.70;99.90;;;;;;5218862;28;20453;-51
2024/01/27 11:04:53;;;;;;;10.67;3.10;;;7.50;99.90;;;;;;5221529;28;20953;-51
2024/01/27 11:07:23;;;;;;;22.53;3.73;;;7.40;99.90;;;;;;5222618;28;20437;-51
2024/01/27 11:09:54;;;;;;;20.17;5.17;;;7.50;99.90;;;;;;5222241;28;20465;-52
2024/01/27 11:12:26;;;;;;;14.60;2.80;;;7.60;99.90;;;;;;5219401;28;20572;-53
2024/01/27 11:15:00;;;;;;;16.67;3.33;;;7.70;99.90;;;;;;5220779;28;20480;-51
2024/01/27 11:17:40;;;;;;;19.30;3.23;;;7.90;99.90;;;;;;5220270;28;20448;-54
2024/01/27 11:20:11;;;;;;;10.30;2.87;;;7.90;99.90;;;;;;5218141;28;20433;-52
2024/01/27 11:22:43;;;;;;;14.30;2.93;;;7.90;99.90;;;;;;5221600;28;20791;-52
2024/01/27 11:25:18;;;;;;;16.80;3.67;;;8.00;99.90;;;;;;5220336;28;21034;-53
2024/01/27 11:27:51;;;;;;;10.93;3.80;;;7.90;99.90;;;;;;5206227;28;20468;-52
2024/01/27 11:30:30;;;;;;;21.03;3.80;;;8.10;99.90;;;;;;5216700;28;20460;-53
2024/01/27 11:33:03;;;;;;;17.13;3.67;;;8.10;99.90;;;;;;5219648;28;20515;-53
2024/01/27 11:35:34;;;;;;;18.60;2.97;;;8.00;99.90;;;;;;5219997;28;20548;-52
2024/01/27 11:38:04;;;;;;;22.07;3.87;;;8.00;99.90;;;;;;5213168;28;20630;-53
2024/01/27 11:40:45;;;;;;;13.60;3.60;;;8.10;99.90;;;;;;5204700;28;20187;-53
2024/01/27 11:43:16;;;;;;;20.30;3.30;;;8.10;99.90;;;;;;5204005;28;20334;-52
2024/01/27 11:46:00;;;;;;;24.07;3.57;;;7.90;99.90;;;;;;5212100;28;20466;-51
2024/01/27 11:48:31;;;;;;;19.43;4.60;;;7.90;99.90;;;;;;5218760;28;20198;-53
2024/01/27 11:51:10;;;;;;;24.87;3.27;;;7.80;99.90;;;;;;5218807;28;20465;-52
2024/01/27 11:53:41;;;;;;;20.60;4.00;;;7.90;99.90;;;;;;5216614;28;20189;-52
2024/01/27 11:56:12;;;;;;;15.00;3.43;;;8.00;99.90;;;;;;5218980;28;21821;-53
2024/01/27 11:58:48;;;;;;;21.13;4.33;;;7.90;99.90;;;;;;5211697;28;20180;-52
2024/01/27 12:01:19;;;;;;;16.73;3.00;;;7.90;99.90;;;;;;5218089;28;20438;-52
2024/01/27 12:03:49;;;;;;;14.10;4.50;;;7.90;99.90;;;;;;5220593;28;20747;-52
2024/01/27 12:06:20;;;;;;;16.00;4.60;;;7.90;99.90;;;;;;5216252;28;20183;-53
2024/01/27 12:08:55;;;;;;;13.57;4.30;;;7.90;99.90;;;;;;5217378;28;20175;-52
2024/01/27 12:11:26;;;;;;;14.40;3.63;;;7.90;99.90;;;;;;5219885;28;20465;-53
2024/01/27 12:13:57;;;;;;;16.20;4.10;;;8.10;99.90;;;;;;5220344;28;20548;-53
2024/01/27 12:16:29;;;;;;;16.07;3.30;;;8.00;99.90;;;;;;5220579;28;20544;-52
2024/01/27 12:19:00;;;;;;;20.07;3.43;;;8.10;99.90;;;;;;5215055;28;20179;-52
2024/01/27 12:21:31;;;;;;;14.50;3.50;;;8.00;99.90;;;;;;5218521;28;20808;-53
2024/01/27 12:24:01;;;;;;;18.60;4.20;;;8.00;99.90;;;;;;5219434;28;20581;-52
2024/01/27 12:26:32;;;;;;;22.83;4.40;;;7.80;99.90;;;;;;5220188;28;20446;-53
2024/01/27 12:29:03;;;;;;;21.20;4.10;;;7.80;99.90;;;;;;5219054;28;20183;-51
2024/01/27 12:31:34;;;;;;;16.77;5.30;;;7.70;99.90;;;;;;5216228;28;20206;-53
2024/01/27 12:34:05;;;;;;;23.70;4.37;;;7.70;99.90;;;;;;5212302;28;20469;-52
2024/01/27 12:36:43;;;;;;;21.53;6.63;;;7.60;99.90;;;;;;5211809;28;20192;-53
2024/01/27 12:39:14;;;;;;;23.13;5.27;;;7.70;99.90;;;;;;5214914;28;20187;-52
2024/01/27 12:41:45;;;;;;;14.13;4.40;;;7.60;99.90;;;;;;5217157;28;20445;-53
2024/01/27 12:44:16;;;;;;;13.40;4.37;;;7.70;99.90;;;;;;5217693;28;20210;-51
2024/01/27 12:46:46;;;;;;;11.20;3.20;;;7.80;99.90;;;;;;5217006;28;20179;-53
2024/01/27 12:49:17;;;;;;;8.37;3.10;;;7.30;99.90;;;;;;5219130;28;20179;-54
2024/01/27 12:51:51;;;;;;;17.30;4.33;;;7.90;99.90;;;;;;5218254;28;20213;-54
2024/01/27 12:54:22;;;;;;;25.53;5.00;;;8.00;99.90;;;;;;5218339;28;20221;-52
2024/01/27 12:56:53;;;;;;;20.07;4.70;;;8.10;99.90;;;;;;5216825;28;20443;-53
2024/01/27 12:59:24;;;;;;;13.67;4.20;;;8.10;99.90;;;;;;5219498;28;20725;-53
2024/01/27 13:01:54;;;;;;;27.43;3.97;;;8.00;99.90;;;;;;5218489;28;20210;-53
2024/01/27 13:04:25;;;;;;;16.50;3.87;;;7.80;99.90;;;;;;5220742;28;20461;-53
2024/01/27 13:06:56;;;;;;;14.77;3.50;;;7.80;99.90;;;;;;5222542;28;20710;-54
2024/01/27 13:09:27;;;;;;;11.70;3.90;;;7.70;99.90;;;;;;5218006;28;20529;-54